Cornwall Center, Pennsylvania
Current Conditions -  °F | °C
As of 3:53 AM on Wednesday 26 Nov 2014 (Local Time) from KLNS Reporting Station
Overcast Overcast  
Wind Chill: 40°   Ceiling: 7000
Heat Index: 40°   Visibility: 10mi
Dew Point: 32°   Wind: 0mph
Humidity: 73%   Direction: NA
Pressure: 30.15"   Gusts: NA
Location:  40.2693°N, 76.4009°W
Report Text: KLNS 260853Z AUTO 00000KT 10SM BKN070 OVC085 04/00 A3015 RMK AO2 SLP213 T00440000 58003
Loading
Personal Weather Stations






























Interactive Weather Map New forecast layout! Learn more

10-Day Weather Forecast

Advertisements
Track Severe Weather on mobile